sensor_id;sensor_type;location;lat;lon;timestamp;pressure;altitude;pressure_sealevel;temperature;humidity
11643;BME280;5877;50.930;6.918;2023-01-29T00:04:32;102488.81;;;-3.11;80.24
11643;BME280;5877;50.930;6.918;2023-01-29T00:09:24;102481.44;;;-3.17;81.06
11643;BME280;5877;50.930;6.918;2023-01-29T00:14:16;102462.47;;;-3.32;81.39
11643;BME280;5877;50.930;6.918;2023-01-29T00:19:07;102479.09;;;-3.22;81.34
11643;BME280;5877;50.930;6.918;2023-01-29T00:23:59;102411.44;;;-3.55;81.52
11643;BME280;5877;50.930;6.918;2023-01-29T00:28:51;102376.59;;;-3.77;81.33
11643;BME280;5877;50.930;6.918;2023-01-29T00:33:43;102460.19;;;-3.21;81.30
11643;BME280;5877;50.930;6.918;2023-01-29T00:38:36;102464.28;;;-3.17;81.38
11643;BME280;5877;50.930;6.918;2023-01-29T00:43:28;102393.72;;;-3.60;80.88
11643;BME280;5877;50.930;6.918;2023-01-29T00:48:38;102260.06;;;-4.40;81.36
11643;BME280;5877;50.930;6.918;2023-01-29T00:53:30;102437.25;;;-3.24;81.42
11643;BME280;5877;50.930;6.918;2023-01-29T00:58:22;102439.44;;;-3.34;81.28
11643;BME280;5877;50.930;6.918;2023-01-29T01:03:24;102252.88;;;-4.51;81.26
11643;BME280;5877;50.930;6.918;2023-01-29T01:08:16;102439.44;;;-3.34;81.61
11643;BME280;5877;50.930;6.918;2023-01-29T01:13:26;102385.50;;;-3.67;81.57
11643;BME280;5877;50.930;6.918;2023-01-29T01:18:18;102443.75;;;-3.34;81.66
11643;BME280;5877;50.930;6.918;2023-01-29T01:23:12;102434.25;;;-3.49;82.32
11643;BME280;5877;50.930;6.918;2023-01-29T01:28:04;102423.97;;;-3.49;81.95
11643;BME280;5877;50.930;6.918;2023-01-29T01:32:55;102434.25;;;-3.49;81.99
11643;BME280;5877;50.930;6.918;2023-01-29T01:37:47;102443.06;;;-3.38;82.11
11643;BME280;5877;50.930;6.918;2023-01-29T01:42:39;102454.03;;;-3.34;81.66
11643;BME280;5877;50.930;6.918;2023-01-29T01:47:39;102235.78;;;-4.68;80.81
11643;BME280;5877;50.930;6.918;2023-01-29T01:52:34;102438.03;;;-3.56;81.29
11643;BME280;5877;50.930;6.918;2023-01-29T01:57:27;102367.44;;;-4.00;82.43
11643;BME280;5877;50.930;6.918;2023-01-29T02:02:21;102423.81;;;-3.46;82.16
11643;BME280;5877;50.930;6.918;2023-01-29T02:07:31;102343.47;;;-3.81;82.04
11643;BME280;5877;50.930;6.918;2023-01-29T02:12:43;102406.81;;;-3.32;81.82
11643;BME280;5877;50.930;6.918;2023-01-29T02:17:35;102416.03;;;-3.28;81.85
11643;BME280;5877;50.930;6.918;2023-01-29T02:32:44;102407.59;;;-3.47;81.71
11643;BME280;5877;50.930;6.918;2023-01-29T02:38:08;102360.75;;;-3.85;81.99
11643;BME280;5877;50.930;6.918;2023-01-29T02:48:04;102309.06;;;-4.29;82.22
11643;BME280;5877;50.930;6.918;2023-01-29T02:53:10;102446.09;;;-3.47;82.42
11643;BME280;5877;50.930;6.918;2023-01-29T03:03:31;102440.06;;;-3.46;81.71
11643;BME280;5877;50.930;6.918;2023-01-29T03:08:37;102374.94;;;-3.95;81.66
11643;BME280;5877;50.930;6.918;2023-01-29T03:13:48;102486.63;;;-3.36;81.65
11643;BME280;5877;50.930;6.918;2023-01-29T03:18:45;102481.88;;;-3.44;81.17
11643;BME280;5877;50.930;6.918;2023-01-29T03:23:41;102449.03;;;-3.72;81.35
11643;BME280;5877;50.930;6.918;2023-01-29T03:28:52;102423.00;;;-3.81;81.77
11643;BME280;5877;50.930;6.918;2023-01-29T03:34:21;102235.13;;;-4.90;81.68
11643;BME280;5877;50.930;6.918;2023-01-29T03:39:18;102433.19;;;-3.63;81.43
11643;BME280;5877;50.930;6.918;2023-01-29T03:49:44;102431.53;;;-3.64;81.12
11643;BME280;5877;50.930;6.918;2023-01-29T03:59:50;102449.09;;;-3.73;81.28
11643;BME280;5877;50.930;6.918;2023-01-29T04:05:10;102415.50;;;-4.03;80.68
11643;BME280;5877;50.930;6.918;2023-01-29T04:10:15;102422.88;;;-3.97;81.20
11643;BME280;5877;50.930;6.918;2023-01-29T04:15:12;102411.13;;;-4.01;81.11
11643;BME280;5877;50.930;6.918;2023-01-29T04:20:08;102437.09;;;-3.73;81.29
11643;BME280;5877;50.930;6.918;2023-01-29T04:25:05;102345.09;;;-4.32;81.33
11643;BME280;5877;50.930;6.918;2023-01-29T04:30:10;102272.03;;;-4.58;80.72
11643;BME280;5877;50.930;6.918;2023-01-29T04:35:35;102353.28;;;-3.89;80.86
11643;BME280;5877;50.930;6.918;2023-01-29T04:56:22;102406.16;;;-3.70;81.60
11643;BME280;5877;50.930;6.918;2023-01-29T05:01:18;102378.94;;;-3.89;81.66
11643;BME280;5877;50.930;6.918;2023-01-29T05:06:10;102382.94;;;-3.84;81.88
11643;BME280;5877;50.930;6.918;2023-01-29T05:11:03;102379.47;;;-3.83;81.46
11643;BME280;5877;50.930;6.918;2023-01-29T05:16:00;102347.84;;;-4.01;81.66
11643;BME280;5877;50.930;6.918;2023-01-29T05:20:55;102345.28;;;-4.01;81.49
11643;BME280;5877;50.930;6.918;2023-01-29T05:25:48;102375.81;;;-3.96;81.29
11643;BME280;5877;50.930;6.918;2023-01-29T05:30:43;102305.97;;;-4.36;80.94
11643;BME280;5877;50.930;6.918;2023-01-29T05:35:35;102377.19;;;-3.89;81.15
11643;BME280;5877;50.930;6.918;2023-01-29T05:40:26;102378.03;;;-3.88;80.99
11643;BME280;5877;50.930;6.918;2023-01-29T05:45:18;102378.78;;;-3.86;81.00
11643;BME280;5877;50.930;6.918;2023-01-29T05:50:11;102377.72;;;-3.82;81.07
11643;BME280;5877;50.930;6.918;2023-01-29T05:55:03;102306.88;;;-4.19;80.63
11643;BME280;5877;50.930;6.918;2023-01-29T05:59:55;102240.91;;;-4.68;80.39
11643;BME280;5877;50.930;6.918;2023-01-29T06:04:46;102380.50;;;-3.87;80.59
11643;BME280;5877;50.930;6.918;2023-01-29T06:09:38;102388.88;;;-3.83;80.50
11643;BME280;5877;50.930;6.918;2023-01-29T06:14:30;102291.19;;;-4.48;81.03
11643;BME280;5877;50.930;6.918;2023-01-29T06:19:21;102232.50;;;-4.88;80.71
11643;BME280;5877;50.930;6.918;2023-01-29T06:24:13;102383.00;;;-4.03;80.69
11643;BME280;5877;50.930;6.918;2023-01-29T06:29:05;102383.88;;;-4.04;81.04
11643;BME280;5877;50.930;6.918;2023-01-29T06:33:57;102332.50;;;-4.37;80.99
11643;BME280;5877;50.930;6.918;2023-01-29T06:38:50;102377.00;;;-4.20;80.90
11643;BME280;5877;50.930;6.918;2023-01-29T06:43:45;102407.94;;;-4.06;81.18
11643;BME280;5877;50.930;6.918;2023-01-29T06:48:37;102306.53;;;-4.84;80.90
11643;BME280;5877;50.930;6.918;2023-01-29T06:53:28;102342.63;;;-4.52;81.32
11643;BME280;5877;50.930;6.918;2023-01-29T06:58:20;102339.75;;;-4.28;81.16
11643;BME280;5877;50.930;6.918;2023-01-29T07:03:12;102292.53;;;-4.41;79.76
11643;BME280;5877;50.930;6.918;2023-01-29T07:08:04;102081.06;;;-5.69;79.12
11643;BME280;5877;50.930;6.918;2023-01-29T07:12:58;102369.19;;;-3.83;79.32
11643;BME280;5877;50.930;6.918;2023-01-29T07:22:48;102413.22;;;-3.23;78.13
11643;BME280;5877;50.930;6.918;2023-01-29T07:27:40;102238.97;;;-4.28;77.40
11643;BME280;5877;50.930;6.918;2023-01-29T07:32:31;102325.88;;;-3.54;77.41
11643;BME280;5877;50.930;6.918;2023-01-29T07:37:23;102423.22;;;-2.68;76.53
11643;BME280;5877;50.930;6.918;2023-01-29T07:42:15;102438.88;;;-2.41;75.29
11643;BME280;5877;50.930;6.918;2023-01-29T07:47:07;102412.41;;;-2.43;75.19
11643;BME280;5877;50.930;6.918;2023-01-29T07:51:59;102200.03;;;-3.69;74.69
11643;BME280;5877;50.930;6.918;2023-01-29T07:56:51;102431.31;;;-2.13;73.95
11643;BME280;5877;50.930;6.918;2023-01-29T08:01:42;102363.81;;;-2.48;73.12
11643;BME280;5877;50.930;6.918;2023-01-29T08:06:34;102347.06;;;-2.39;72.46
11643;BME280;5877;50.930;6.918;2023-01-29T08:11:25;102375.25;;;-2.22;72.77
11643;BME280;5877;50.930;6.918;2023-01-29T08:16:17;102416.91;;;-1.85;72.36
11643;BME280;5877;50.930;6.918;2023-01-29T08:21:09;102307.28;;;-2.48;71.91
11643;BME280;5877;50.930;6.918;2023-01-29T08:26:03;102356.50;;;-1.94;71.34
11643;BME280;5877;50.930;6.918;2023-01-29T08:30:55;102285.28;;;-2.38;70.88
11643;BME280;5877;50.930;6.918;2023-01-29T08:35:50;102354.16;;;-2.13;72.05
11643;BME280;5877;50.930;6.918;2023-01-29T08:40:42;102342.03;;;-2.11;71.86
11643;BME280;5877;50.930;6.918;2023-01-29T08:45:36;102416.97;;;-1.71;72.65
11643;BME280;5877;50.930;6.918;2023-01-29T08:50:28;102410.38;;;-1.61;71.74
11643;BME280;5877;50.930;6.918;2023-01-29T08:55:21;102118.97;;;-3.25;71.65
11643;BME280;5877;50.930;6.918;2023-01-29T09:00:13;102396.91;;;-1.36;71.38
11643;BME280;5877;50.930;6.918;2023-01-29T09:05:06;102253.94;;;-2.14;71.88
11643;BME280;5877;50.930;6.918;2023-01-29T09:09:58;102342.78;;;-1.65;71.07
11643;BME280;5877;50.930;6.918;2023-01-29T09:14:49;102366.81;;;-1.36;72.07
11643;BME280;5877;50.930;6.918;2023-01-29T09:19:41;102396.72;;;-1.05;71.25
11643;BME280;5877;50.930;6.918;2023-01-29T09:24:33;102391.19;;;-0.84;70.55
11643;BME280;5877;50.930;6.918;2023-01-29T09:29:25;102199.94;;;-2.00;71.06
11643;BME280;5877;50.930;6.918;2023-01-29T09:34:17;102382.72;;;-0.72;70.61
11643;BME280;5877;50.930;6.918;2023-01-29T09:39:08;102190.38;;;-1.70;70.22
11643;BME280;5877;50.930;6.918;2023-01-29T09:44:02;102376.72;;;-0.31;69.70
11643;BME280;5877;50.930;6.918;2023-01-29T09:49:05;102374.19;;;-0.19;68.63
11643;BME280;5877;50.930;6.918;2023-01-29T09:54:22;102362.34;;;0.04;68.37
11643;BME280;5877;50.930;6.918;2023-01-29T09:59:17;102271.38;;;-0.25;67.45
11643;BME280;5877;50.930;6.918;2023-01-29T10:24:57;102281.00;;;0.98;65.38
11643;BME280;5877;50.930;6.918;2023-01-29T10:29:52;102306.78;;;1.48;63.90
11643;BME280;5877;50.930;6.918;2023-01-29T10:34:56;102328.34;;;1.36;63.63
11643;BME280;5877;50.930;6.918;2023-01-29T10:39:50;102180.56;;;0.45;64.23
11643;BME280;5877;50.930;6.918;2023-01-29T10:50:39;102318.59;;;1.39;64.85
11643;BME280;5877;50.930;6.918;2023-01-29T10:55:42;102230.31;;;0.72;64.03
11643;BME280;5877;50.930;6.918;2023-01-29T11:00:38;102249.03;;;0.63;65.18
11643;BME280;5877;50.930;6.918;2023-01-29T11:05:36;102298.97;;;1.00;64.51
11643;BME280;5877;50.930;6.918;2023-01-29T11:10:36;102204.78;;;0.68;64.01
11643;BME280;5877;50.930;6.918;2023-01-29T11:15:31;102271.00;;;1.42;63.04
11643;BME280;5877;50.930;6.918;2023-01-29T11:20:29;102194.84;;;0.98;62.95
11643;BME280;5877;50.930;6.918;2023-01-29T11:25:21;102121.22;;;0.56;62.98
11643;BME280;5877;50.930;6.918;2023-01-29T11:30:23;102249.47;;;1.76;62.38
11643;BME280;5877;50.930;6.918;2023-01-29T11:50:33;102161.25;;;2.02;60.92
11643;BME280;5877;50.930;6.918;2023-01-29T11:55:27;102131.22;;;1.99;60.33
11643;BME280;5877;50.930;6.918;2023-01-29T12:00:45;102208.66;;;2.58;59.92
11643;BME280;5877;50.930;6.918;2023-01-29T12:05:39;102195.03;;;2.88;58.84
11643;BME280;5877;50.930;6.918;2023-01-29T12:10:40;102107.53;;;2.26;59.48
11643;BME280;5877;50.930;6.918;2023-01-29T12:15:33;102107.97;;;2.42;59.31
11643;BME280;5877;50.930;6.918;2023-01-29T12:20:29;102147.00;;;2.30;60.17
11643;BME280;5877;50.930;6.918;2023-01-29T12:25:48;102113.56;;;2.15;60.46
11643;BME280;5877;50.930;6.918;2023-01-29T12:31:13;102146.03;;;2.42;60.85
11643;BME280;5877;50.930;6.918;2023-01-29T12:46:36;102001.09;;;2.29;60.13
11643;BME280;5877;50.930;6.918;2023-01-29T12:51:34;101993.09;;;2.74;59.11
11643;BME280;5877;50.930;6.918;2023-01-29T12:56:41;102016.16;;;2.98;58.90
11643;BME280;5877;50.930;6.918;2023-01-29T13:01:46;102063.91;;;3.37;59.09
11643;BME280;5877;50.930;6.918;2023-01-29T13:06:45;102057.31;;;3.33;59.00
11643;BME280;5877;50.930;6.918;2023-01-29T13:11:48;102054.09;;;3.40;59.13
11643;BME280;5877;50.930;6.918;2023-01-29T13:16:44;102044.41;;;3.42;59.37
11643;BME280;5877;50.930;6.918;2023-01-29T13:21:40;102038.16;;;3.24;59.39
11643;BME280;5877;50.930;6.918;2023-01-29T13:26:34;101956.94;;;2.51;60.97
11643;BME280;5877;50.930;6.918;2023-01-29T13:31:32;102016.28;;;2.96;60.93
11643;BME280;5877;50.930;6.918;2023-01-29T13:36:27;101902.78;;;2.27;60.71
11643;BME280;5877;50.930;6.918;2023-01-29T13:41:30;101817.75;;;1.91;61.10
11643;BME280;5877;50.930;6.918;2023-01-29T13:46:23;101939.06;;;3.00;60.86
11643;BME280;5877;50.930;6.918;2023-01-29T13:51:28;101914.41;;;2.84;60.71
11643;BME280;5877;50.930;6.918;2023-01-29T13:56:28;101993.13;;;3.65;59.49
11643;BME280;5877;50.930;6.918;2023-01-29T14:02:00;101979.25;;;4.14;58.52
11643;BME280;5877;50.930;6.918;2023-01-29T14:06:54;101965.84;;;3.90;59.08
11643;BME280;5877;50.930;6.918;2023-01-29T14:11:47;101949.28;;;3.72;58.56
11643;BME280;5877;50.930;6.918;2023-01-29T14:16:39;101992.25;;;4.14;58.78
11643;BME280;5877;50.930;6.918;2023-01-29T14:21:32;101990.19;;;3.99;58.95
11643;BME280;5877;50.930;6.918;2023-01-29T14:36:20;101928.13;;;3.36;60.55
11643;BME280;5877;50.930;6.918;2023-01-29T14:41:27;101974.13;;;3.65;60.54
11643;BME280;5877;50.930;6.918;2023-01-29T14:51:25;101980.25;;;3.54;60.94
11643;BME280;5877;50.930;6.918;2023-01-29T14:56:31;101986.91;;;3.47;60.37
11643;BME280;5877;50.930;6.918;2023-01-29T15:01:36;101968.28;;;3.32;61.08
11643;BME280;5877;50.930;6.918;2023-01-29T15:06:44;101934.34;;;3.14;60.96
11643;BME280;5877;50.930;6.918;2023-01-29T15:17:00;101981.94;;;3.34;61.38
11643;BME280;5877;50.930;6.918;2023-01-29T15:22:09;101959.53;;;3.03;61.43
11643;BME280;5877;50.930;6.918;2023-01-29T15:27:02;101960.06;;;2.97;61.34
11643;BME280;5877;50.930;6.918;2023-01-29T15:31:55;101984.59;;;3.13;61.68
11643;BME280;5877;50.930;6.918;2023-01-29T15:36:48;101983.59;;;3.05;62.38
11643;BME280;5877;50.930;6.918;2023-01-29T15:41:41;101974.41;;;3.01;62.58
11643;BME280;5877;50.930;6.918;2023-01-29T15:46:35;101938.13;;;2.80;63.02
11643;BME280;5877;50.930;6.918;2023-01-29T15:51:28;101890.22;;;2.44;62.98
11643;BME280;5877;50.930;6.918;2023-01-29T15:56:38;101964.38;;;2.86;62.97
11643;BME280;5877;50.930;6.918;2023-01-29T16:01:31;101908.66;;;2.50;63.48
11643;BME280;5877;50.930;6.918;2023-01-29T16:06:23;101911.13;;;2.52;63.69
11643;BME280;5877;50.930;6.918;2023-01-29T16:11:16;101924.09;;;2.52;63.45
11643;BME280;5877;50.930;6.918;2023-01-29T16:21:13;101911.44;;;2.38;63.88
11643;BME280;5877;50.930;6.918;2023-01-29T16:26:07;101908.72;;;2.39;63.43
11643;BME280;5877;50.930;6.918;2023-01-29T16:31:00;101958.25;;;2.67;64.07
11643;BME280;5877;50.930;6.918;2023-01-29T16:35:54;101898.31;;;2.30;63.97
11643;BME280;5877;50.930;6.918;2023-01-29T16:41:06;101951.13;;;2.59;64.74
11643;BME280;5877;50.930;6.918;2023-01-29T16:46:07;101953.97;;;2.56;64.93
11643;BME280;5877;50.930;6.918;2023-01-29T16:51:21;101945.50;;;2.54;64.92
11643;BME280;5877;50.930;6.918;2023-01-29T16:56:13;101768.91;;;1.45;64.77
11643;BME280;5877;50.930;6.918;2023-01-29T17:01:09;101944.69;;;2.53;65.36
11643;BME280;5877;50.930;6.918;2023-01-29T17:06:12;101874.28;;;2.07;65.37
11643;BME280;5877;50.930;6.918;2023-01-29T17:11:11;101910.31;;;2.31;65.94
11643;BME280;5877;50.930;6.918;2023-01-29T17:16:30;101923.44;;;2.39;65.76
11643;BME280;5877;50.930;6.918;2023-01-29T17:21:23;101920.03;;;2.38;66.00
11643;BME280;5877;50.930;6.918;2023-01-29T17:26:15;101913.66;;;2.42;65.70
11643;BME280;5877;50.930;6.918;2023-01-29T17:31:08;101909.03;;;2.46;65.34
11643;BME280;5877;50.930;6.918;2023-01-29T17:35:59;101911.00;;;2.53;65.42
11643;BME280;5877;50.930;6.918;2023-01-29T17:41:06;101644.53;;;0.95;65.15
11643;BME280;5877;50.930;6.918;2023-01-29T17:45:59;101788.50;;;1.79;65.41
11643;BME280;5877;50.930;6.918;2023-01-29T17:50:54;101854.31;;;2.18;65.58
11643;BME280;5877;50.930;6.918;2023-01-29T17:55:46;101887.00;;;2.31;65.62
11643;BME280;5877;50.930;6.918;2023-01-29T18:00:37;101887.44;;;2.36;65.65
11643;BME280;5877;50.930;6.918;2023-01-29T18:05:29;101887.63;;;2.44;65.36
11643;BME280;5877;50.930;6.918;2023-01-29T18:10:20;101855.41;;;2.16;65.41
11643;BME280;5877;50.930;6.918;2023-01-29T18:15:13;101778.09;;;1.70;65.07
11643;BME280;5877;50.930;6.918;2023-01-29T18:20:24;101868.78;;;2.42;64.80
11643;BME280;5877;50.930;6.918;2023-01-29T18:25:16;101796.09;;;1.92;64.64
11643;BME280;5877;50.930;6.918;2023-01-29T18:30:10;101794.47;;;1.91;64.42
11643;BME280;5877;50.930;6.918;2023-01-29T18:35:03;101861.28;;;2.39;64.50
11643;BME280;5877;50.930;6.918;2023-01-29T18:39:56;101775.44;;;1.81;64.51
11643;BME280;5877;50.930;6.918;2023-01-29T18:44:48;101837.91;;;2.29;64.32
11643;BME280;5877;50.930;6.918;2023-01-29T18:49:40;101830.69;;;2.33;64.32
11643;BME280;5877;50.930;6.918;2023-01-29T18:54:31;101766.03;;;2.01;64.33
11643;BME280;5877;50.930;6.918;2023-01-29T18:59:23;101783.88;;;2.24;64.46
11643;BME280;5877;50.930;6.918;2023-01-29T19:04:15;101819.31;;;2.45;64.50
11643;BME280;5877;50.930;6.918;2023-01-29T19:09:07;101758.88;;;2.14;64.61
11643;BME280;5877;50.930;6.918;2023-01-29T19:13:59;101730.78;;;2.09;64.91
11643;BME280;5877;50.930;6.918;2023-01-29T19:18:52;101754.88;;;2.31;64.84
11643;BME280;5877;50.930;6.918;2023-01-29T19:23:46;101771.72;;;2.46;65.20
11643;BME280;5877;50.930;6.918;2023-01-29T19:28:38;101737.81;;;2.28;65.07
11643;BME280;5877;50.930;6.918;2023-01-29T19:33:30;101737.31;;;2.34;65.05
11643;BME280;5877;50.930;6.918;2023-01-29T19:38:22;101740.06;;;2.42;65.01
11643;BME280;5877;50.930;6.918;2023-01-29T19:43:14;101708.44;;;2.08;66.10
11643;BME280;5877;50.930;6.918;2023-01-29T19:48:06;101756.59;;;2.51;65.91
11643;BME280;5877;50.930;6.918;2023-01-29T19:52:58;101763.84;;;2.57;66.14
11643;BME280;5877;50.930;6.918;2023-01-29T19:57:53;101702.97;;;2.42;66.18
11643;BME280;5877;50.930;6.918;2023-01-29T20:02:45;101715.69;;;2.64;66.33
11643;BME280;5877;50.930;6.918;2023-01-29T20:07:40;101728.25;;;2.69;67.04
11643;BME280;5877;50.930;6.918;2023-01-29T20:12:33;101610.16;;;2.07;67.35
11643;BME280;5877;50.930;6.918;2023-01-29T20:17:25;101703.03;;;2.71;68.02
11643;BME280;5877;50.930;6.918;2023-01-29T20:22:16;101538.38;;;1.69;67.96
11643;BME280;5877;50.930;6.918;2023-01-29T20:27:09;101638.06;;;2.34;69.38
11643;BME280;5877;50.930;6.918;2023-01-29T20:32:01;101680.78;;;2.78;69.72
11643;BME280;5877;50.930;6.918;2023-01-29T20:36:54;101672.19;;;2.77;69.83
11643;BME280;5877;50.930;6.918;2023-01-29T20:41:46;101662.91;;;2.75;70.39
11643;BME280;5877;50.930;6.918;2023-01-29T20:46:37;101619.41;;;2.59;70.35
11643;BME280;5877;50.930;6.918;2023-01-29T20:51:29;101641.09;;;2.87;70.31
11643;BME280;5877;50.930;6.918;2023-01-29T20:56:21;101634.00;;;2.79;70.43
11643;BME280;5877;50.930;6.918;2023-01-29T21:01:30;101627.59;;;2.83;70.55
11643;BME280;5877;50.930;6.918;2023-01-29T21:06:21;101603.16;;;2.67;70.43
11643;BME280;5877;50.930;6.918;2023-01-29T21:11:13;101626.91;;;2.91;71.12
11643;BME280;5877;50.930;6.918;2023-01-29T21:16:05;101634.00;;;2.89;71.77
11643;BME280;5877;50.930;6.918;2023-01-29T21:20:57;101510.72;;;2.19;71.40
11643;BME280;5877;50.930;6.918;2023-01-29T21:25:49;101616.13;;;3.05;71.11
11643;BME280;5877;50.930;6.918;2023-01-29T21:30:41;101486.84;;;2.44;71.77
11643;BME280;5877;50.930;6.918;2023-01-29T23:21:47;101411.88;;;2.80;75.09
11643;BME280;5877;50.930;6.918;2023-01-29T23:26:39;101342.72;;;2.53;75.48
11643;BME280;5877;50.930;6.918;2023-01-29T23:31:49;101468.97;;;3.44;75.86
11643;BME280;5877;50.930;6.918;2023-01-29T23:36:41;101451.22;;;3.67;77.21
11643;BME280;5877;50.930;6.918;2023-01-29T23:41:33;101465.19;;;3.84;77.13
11643;BME280;5877;50.930;6.918;2023-01-29T23:46:25;101392.16;;;3.51;77.07
11643;BME280;5877;50.930;6.918;2023-01-29T23:51:17;101268.63;;;2.78;76.60
11643;BME280;5877;50.930;6.918;2023-01-29T23:56:09;101439.59;;;4.07;76.25
